sensor_id;sensor_type;location;lat;lon;timestamp;P1;durP1;ratioP1;P2;durP2;ratioP2
59734;SDS011;64362;45.620;4.920;2022-12-10T00:00:37;35.00;;;20.77;;
59734;SDS011;64362;45.620;4.920;2022-12-10T00:03:09;35.30;;;18.70;;
59734;SDS011;64362;45.620;4.920;2022-12-10T00:05:35;35.97;;;18.60;;
59734;SDS011;64362;45.620;4.920;2022-12-10T00:08:07;31.45;;;18.08;;
59734;SDS011;64362;45.620;4.920;2022-12-10T00:10:33;27.77;;;17.80;;
59734;SDS011;64362;45.620;4.920;2022-12-10T00:13:04;31.90;;;18.85;;
59734;SDS011;64362;45.620;4.920;2022-12-10T00:15:30;34.13;;;17.20;;
59734;SDS011;64362;45.620;4.920;2022-12-10T00:18:01;28.13;;;16.92;;
59734;SDS011;64362;45.620;4.920;2022-12-10T00:20:27;24.73;;;16.20;;
59734;SDS011;64362;45.620;4.920;2022-12-10T00:22:58;28.63;;;16.50;;
59734;SDS011;64362;45.620;4.920;2022-12-10T00:25:24;27.95;;;16.63;;
59734;SDS011;64362;45.620;4.920;2022-12-10T00:27:55;26.65;;;15.52;;
59734;SDS011;64362;45.620;4.920;2022-12-10T00:30:21;26.35;;;15.40;;
59734;SDS011;64362;45.620;4.920;2022-12-10T00:32:53;27.55;;;15.32;;
59734;SDS011;64362;45.620;4.920;2022-12-10T00:35:18;24.25;;;15.20;;
59734;SDS011;64362;45.620;4.920;2022-12-10T00:37:51;25.30;;;13.68;;
59734;SDS011;64362;45.620;4.920;2022-12-10T00:40:36;21.33;;;13.90;;
59734;SDS011;64362;45.620;4.920;2022-12-10T00:43:08;22.48;;;12.95;;
59734;SDS011;64362;45.620;4.920;2022-12-10T00:45:34;23.35;;;14.38;;
59734;SDS011;64362;45.620;4.920;2022-12-10T00:48:05;22.42;;;13.75;;
59734;SDS011;64362;45.620;4.920;2022-12-10T00:50:31;21.92;;;13.45;;
59734;SDS011;64362;45.620;4.920;2022-12-10T00:53:02;22.15;;;12.65;;
59734;SDS011;64362;45.620;4.920;2022-12-10T00:55:34;19.52;;;12.98;;
59734;SDS011;64362;45.620;4.920;2022-12-10T00:58:06;22.55;;;13.00;;
59734;SDS011;64362;45.620;4.920;2022-12-10T01:00:38;18.05;;;12.23;;
59734;SDS011;64362;45.620;4.920;2022-12-10T01:03:04;20.92;;;12.43;;
59734;SDS011;64362;45.620;4.920;2022-12-10T01:05:36;20.45;;;12.35;;
59734;SDS011;64362;45.620;4.920;2022-12-10T01:08:08;17.35;;;12.07;;
59734;SDS011;64362;45.620;4.920;2022-12-10T01:10:40;18.70;;;11.52;;
59734;SDS011;64362;45.620;4.920;2022-12-10T01:13:12;18.23;;;10.60;;
59734;SDS011;64362;45.620;4.920;2022-12-10T01:15:38;16.98;;;11.20;;
59734;SDS011;64362;45.620;4.920;2022-12-10T01:18:10;16.85;;;10.82;;
59734;SDS011;64362;45.620;4.920;2022-12-10T01:20:36;18.80;;;11.30;;
59734;SDS011;64362;45.620;4.920;2022-12-10T01:23:08;16.55;;;9.75;;
59734;SDS011;64362;45.620;4.920;2022-12-10T01:25:34;16.83;;;9.90;;
59734;SDS011;64362;45.620;4.920;2022-12-10T01:28:06;16.45;;;10.20;;
59734;SDS011;64362;45.620;4.920;2022-12-10T01:30:32;16.45;;;10.15;;
59734;SDS011;64362;45.620;4.920;2022-12-10T01:33:04;16.25;;;9.95;;
59734;SDS011;64362;45.620;4.920;2022-12-10T01:35:35;16.67;;;10.48;;
59734;SDS011;64362;45.620;4.920;2022-12-10T01:40:53;14.95;;;9.85;;
59734;SDS011;64362;45.620;4.920;2022-12-10T01:43:26;14.20;;;8.35;;
59734;SDS011;64362;45.620;4.920;2022-12-10T01:45:51;15.13;;;9.57;;
59734;SDS011;64362;45.620;4.920;2022-12-10T01:48:23;13.70;;;9.13;;
59734;SDS011;64362;45.620;4.920;2022-12-10T01:50:50;12.95;;;8.55;;
59734;SDS011;64362;45.620;4.920;2022-12-10T01:53:21;13.40;;;8.90;;
59734;SDS011;64362;45.620;4.920;2022-12-10T01:55:48;12.63;;;8.73;;
59734;SDS011;64362;45.620;4.920;2022-12-10T01:58:21;13.50;;;8.35;;
59734;SDS011;64362;45.620;4.920;2022-12-10T02:03:42;12.23;;;8.20;;
59734;SDS011;64362;45.620;4.920;2022-12-10T02:12:20;14.00;;;8.48;;
59734;SDS011;64362;45.620;4.920;2022-12-10T02:15:13;11.77;;;7.82;;
59734;SDS011;64362;45.620;4.920;2022-12-10T02:17:52;11.18;;;7.20;;
59734;SDS011;64362;45.620;4.920;2022-12-10T02:23:13;10.27;;;7.40;;
59734;SDS011;64362;45.620;4.920;2022-12-10T02:25:49;12.35;;;7.32;;
59734;SDS011;64362;45.620;4.920;2022-12-10T02:31:17;12.10;;;7.57;;
59734;SDS011;64362;45.620;4.920;2022-12-10T02:33:46;11.77;;;7.93;;
59734;SDS011;64362;45.620;4.920;2022-12-10T02:36:21;10.95;;;7.45;;
59734;SDS011;64362;45.620;4.920;2022-12-10T02:39:02;11.63;;;7.97;;
59734;SDS011;64362;45.620;4.920;2022-12-10T02:41:50;9.05;;;6.45;;
59734;SDS011;64362;45.620;4.920;2022-12-10T02:44:24;10.70;;;7.78;;
59734;SDS011;64362;45.620;4.920;2022-12-10T02:46:57;9.70;;;6.57;;
59734;SDS011;64362;45.620;4.920;2022-12-10T02:49:34;10.82;;;7.68;;
59734;SDS011;64362;45.620;4.920;2022-12-10T02:52:08;9.75;;;6.85;;
59734;SDS011;64362;45.620;4.920;2022-12-10T02:54:44;10.98;;;7.68;;
59734;SDS011;64362;45.620;4.920;2022-12-10T02:57:29;9.98;;;6.75;;
59734;SDS011;64362;45.620;4.920;2022-12-10T03:05:43;11.00;;;7.13;;
59734;SDS011;64362;45.620;4.920;2022-12-10T03:08:34;9.57;;;6.13;;
59734;SDS011;64362;45.620;4.920;2022-12-10T03:11:13;11.43;;;6.78;;
59734;SDS011;64362;45.620;4.920;2022-12-10T03:14:21;9.05;;;6.38;;
59734;SDS011;64362;45.620;4.920;2022-12-10T03:16:49;9.75;;;6.75;;
59734;SDS011;64362;45.620;4.920;2022-12-10T03:19:35;10.50;;;6.10;;
59734;SDS011;64362;45.620;4.920;2022-12-10T03:22:09;7.82;;;5.78;;
59734;SDS011;64362;45.620;4.920;2022-12-10T03:24:44;9.18;;;7.20;;
59734;SDS011;64362;45.620;4.920;2022-12-10T03:27:10;9.38;;;6.88;;
59734;SDS011;64362;45.620;4.920;2022-12-10T03:29:45;7.83;;;6.00;;
59734;SDS011;64362;45.620;4.920;2022-12-10T03:32:21;9.32;;;6.20;;
59734;SDS011;64362;45.620;4.920;2022-12-10T03:34:55;7.93;;;5.95;;
59734;SDS011;64362;45.620;4.920;2022-12-10T03:37:23;8.38;;;6.00;;
59734;SDS011;64362;45.620;4.920;2022-12-10T03:40:03;7.10;;;5.85;;
59734;SDS011;64362;45.620;4.920;2022-12-10T03:42:36;9.98;;;6.65;;
59734;SDS011;64362;45.620;4.920;2022-12-10T03:45:02;8.00;;;5.72;;
59734;SDS011;64362;45.620;4.920;2022-12-10T03:47:35;8.98;;;5.97;;
59734;SDS011;64362;45.620;4.920;2022-12-10T03:50:00;7.80;;;5.60;;
59734;SDS011;64362;45.620;4.920;2022-12-10T03:52:33;7.72;;;6.00;;
59734;SDS011;64362;45.620;4.920;2022-12-10T03:54:58;8.07;;;5.40;;
59734;SDS011;64362;45.620;4.920;2022-12-10T03:57:30;7.40;;;5.43;;
59734;SDS011;64362;45.620;4.920;2022-12-10T04:00:03;7.55;;;5.38;;
59734;SDS011;64362;45.620;4.920;2022-12-10T04:02:40;6.88;;;5.30;;
59734;SDS011;64362;45.620;4.920;2022-12-10T04:05:06;7.78;;;5.18;;
59734;SDS011;64362;45.620;4.920;2022-12-10T04:07:39;7.38;;;5.50;;
59734;SDS011;64362;45.620;4.920;2022-12-10T04:10:04;7.85;;;4.97;;
59734;SDS011;64362;45.620;4.920;2022-12-10T04:12:37;6.85;;;4.85;;
59734;SDS011;64362;45.620;4.920;2022-12-10T04:15:02;6.80;;;5.38;;
59734;SDS011;64362;45.620;4.920;2022-12-10T04:17:54;7.35;;;4.85;;
59734;SDS011;64362;45.620;4.920;2022-12-10T04:20:26;5.70;;;5.03;;
59734;SDS011;64362;45.620;4.920;2022-12-10T04:23:17;7.35;;;5.03;;
59734;SDS011;64362;45.620;4.920;2022-12-10T04:26:08;6.35;;;5.22;;
59734;SDS011;64362;45.620;4.920;2022-12-10T04:28:59;7.75;;;5.45;;
59734;SDS011;64362;45.620;4.920;2022-12-10T04:31:25;5.57;;;4.95;;
59734;SDS011;64362;45.620;4.920;2022-12-10T04:33:57;6.10;;;4.85;;
59734;SDS011;64362;45.620;4.920;2022-12-10T04:36:22;7.30;;;5.25;;
59734;SDS011;64362;45.620;4.920;2022-12-10T04:38:54;6.05;;;4.72;;
59734;SDS011;64362;45.620;4.920;2022-12-10T04:41:26;5.95;;;5.00;;
59734;SDS011;64362;45.620;4.920;2022-12-10T04:44:05;5.15;;;4.57;;
59734;SDS011;64362;45.620;4.920;2022-12-10T04:46:30;6.15;;;4.75;;
59734;SDS011;64362;45.620;4.920;2022-12-10T04:49:03;6.05;;;5.03;;
59734;SDS011;64362;45.620;4.920;2022-12-10T04:51:29;6.60;;;5.18;;
59734;SDS011;64362;45.620;4.920;2022-12-10T04:54:01;6.25;;;5.07;;
59734;SDS011;64362;45.620;4.920;2022-12-10T04:56:27;5.88;;;4.65;;
59734;SDS011;64362;45.620;4.920;2022-12-10T04:58:59;6.35;;;5.13;;
59734;SDS011;64362;45.620;4.920;2022-12-10T05:01:31;7.28;;;5.07;;
59734;SDS011;64362;45.620;4.920;2022-12-10T05:03:58;7.50;;;5.40;;
59734;SDS011;64362;45.620;4.920;2022-12-10T05:06:31;6.38;;;5.50;;
59734;SDS011;64362;45.620;4.920;2022-12-10T05:09:04;8.32;;;5.45;;
59734;SDS011;64362;45.620;4.920;2022-12-10T05:11:36;5.18;;;4.28;;
59734;SDS011;64362;45.620;4.920;2022-12-10T05:14:02;5.90;;;4.80;;
59734;SDS011;64362;45.620;4.920;2022-12-10T05:16:34;7.40;;;4.93;;
59734;SDS011;64362;45.620;4.920;2022-12-10T05:19:06;7.75;;;5.05;;
59734;SDS011;64362;45.620;4.920;2022-12-10T05:21:39;5.97;;;4.75;;
59734;SDS011;64362;45.620;4.920;2022-12-10T05:24:30;5.47;;;4.28;;
59734;SDS011;64362;45.620;4.920;2022-12-10T05:26:56;5.28;;;4.45;;
59734;SDS011;64362;45.620;4.920;2022-12-10T05:29:29;5.38;;;4.70;;
59734;SDS011;64362;45.620;4.920;2022-12-10T05:31:55;6.00;;;5.05;;
59734;SDS011;64362;45.620;4.920;2022-12-10T05:34:26;7.32;;;5.05;;
59734;SDS011;64362;45.620;4.920;2022-12-10T05:36:52;5.43;;;4.80;;
59734;SDS011;64362;45.620;4.920;2022-12-10T05:39:31;5.53;;;4.38;;
59734;SDS011;64362;45.620;4.920;2022-12-10T05:42:03;6.35;;;4.57;;
59734;SDS011;64362;45.620;4.920;2022-12-10T05:44:36;5.47;;;4.72;;
59734;SDS011;64362;45.620;4.920;2022-12-10T05:47:08;5.70;;;4.55;;
59734;SDS011;64362;45.620;4.920;2022-12-10T05:49:40;4.75;;;3.97;;
59734;SDS011;64362;45.620;4.920;2022-12-10T05:52:06;4.72;;;4.15;;
59734;SDS011;64362;45.620;4.920;2022-12-10T05:54:38;6.78;;;4.47;;
59734;SDS011;64362;45.620;4.920;2022-12-10T05:57:04;5.43;;;4.47;;
59734;SDS011;64362;45.620;4.920;2022-12-10T05:59:35;5.20;;;4.57;;
59734;SDS011;64362;45.620;4.920;2022-12-10T06:02:01;5.25;;;4.30;;
59734;SDS011;64362;45.620;4.920;2022-12-10T06:04:32;5.20;;;4.40;;
59734;SDS011;64362;45.620;4.920;2022-12-10T06:07:04;5.47;;;4.75;;
59734;SDS011;64362;45.620;4.920;2022-12-10T06:09:30;5.18;;;4.68;;
59734;SDS011;64362;45.620;4.920;2022-12-10T06:12:01;5.50;;;4.28;;
59734;SDS011;64362;45.620;4.920;2022-12-10T06:14:33;5.07;;;4.28;;
59734;SDS011;64362;45.620;4.920;2022-12-10T06:16:59;5.82;;;4.60;;
59734;SDS011;64362;45.620;4.920;2022-12-10T06:19:30;6.00;;;4.60;;
59734;SDS011;64362;45.620;4.920;2022-12-10T06:21:56;6.60;;;4.78;;
59734;SDS011;64362;45.620;4.920;2022-12-10T06:24:29;6.25;;;4.32;;
59734;SDS011;64362;45.620;4.920;2022-12-10T06:26:55;5.30;;;3.88;;
59734;SDS011;64362;45.620;4.920;2022-12-10T06:29:26;4.95;;;4.45;;
59734;SDS011;64362;45.620;4.920;2022-12-10T06:31:58;5.13;;;3.80;;
59734;SDS011;64362;45.620;4.920;2022-12-10T06:34:24;4.85;;;4.00;;
59734;SDS011;64362;45.620;4.920;2022-12-10T06:36:56;4.80;;;3.95;;
59734;SDS011;64362;45.620;4.920;2022-12-10T06:39:28;4.65;;;3.72;;
59734;SDS011;64362;45.620;4.920;2022-12-10T06:42:14;4.57;;;3.72;;
59734;SDS011;64362;45.620;4.920;2022-12-10T06:44:46;4.78;;;3.67;;
59734;SDS011;64362;45.620;4.920;2022-12-10T06:47:12;5.32;;;4.03;;
59734;SDS011;64362;45.620;4.920;2022-12-10T06:49:44;5.22;;;4.20;;
59734;SDS011;64362;45.620;4.920;2022-12-10T06:52:16;5.55;;;4.55;;
59734;SDS011;64362;45.620;4.920;2022-12-10T06:54:42;6.43;;;4.32;;
59734;SDS011;64362;45.620;4.920;2022-12-10T06:57:21;4.80;;;4.10;;
59734;SDS011;64362;45.620;4.920;2022-12-10T06:59:52;5.45;;;4.45;;
59734;SDS011;64362;45.620;4.920;2022-12-10T07:02:24;5.65;;;3.85;;
59734;SDS011;64362;45.620;4.920;2022-12-10T07:04:50;5.32;;;4.00;;
59734;SDS011;64362;45.620;4.920;2022-12-10T07:07:22;4.75;;;4.20;;
59734;SDS011;64362;45.620;4.920;2022-12-10T07:09:48;5.00;;;4.32;;
59734;SDS011;64362;45.620;4.920;2022-12-10T07:12:20;5.43;;;4.50;;
59734;SDS011;64362;45.620;4.920;2022-12-10T07:14:46;6.15;;;4.60;;
59734;SDS011;64362;45.620;4.920;2022-12-10T07:17:17;5.63;;;4.90;;
59734;SDS011;64362;45.620;4.920;2022-12-10T07:19:49;6.22;;;4.80;;
59734;SDS011;64362;45.620;4.920;2022-12-10T07:22:21;6.68;;;4.72;;
59734;SDS011;64362;45.620;4.920;2022-12-10T07:24:47;6.38;;;4.50;;
59734;SDS011;64362;45.620;4.920;2022-12-10T07:27:19;5.93;;;5.10;;
59734;SDS011;64362;45.620;4.920;2022-12-10T07:29:45;5.50;;;4.88;;
59734;SDS011;64362;45.620;4.920;2022-12-10T07:32:16;4.95;;;3.90;;
59734;SDS011;64362;45.620;4.920;2022-12-10T07:34:42;6.32;;;4.40;;
59734;SDS011;64362;45.620;4.920;2022-12-10T07:37:20;4.82;;;4.15;;
59734;SDS011;64362;45.620;4.920;2022-12-10T07:40:06;5.25;;;4.30;;
59734;SDS011;64362;45.620;4.920;2022-12-10T07:42:45;6.65;;;4.35;;
59734;SDS011;64362;45.620;4.920;2022-12-10T07:45:17;5.45;;;4.18;;
59734;SDS011;64362;45.620;4.920;2022-12-10T07:47:49;5.57;;;3.85;;
59734;SDS011;64362;45.620;4.920;2022-12-10T07:50:15;5.50;;;4.15;;
59734;SDS011;64362;45.620;4.920;2022-12-10T07:52:47;4.93;;;3.70;;
59734;SDS011;64362;45.620;4.920;2022-12-10T07:55:12;5.03;;;3.88;;
59734;SDS011;64362;45.620;4.920;2022-12-10T07:57:45;6.35;;;4.45;;
59734;SDS011;64362;45.620;4.920;2022-12-10T08:00:10;5.25;;;4.57;;
59734;SDS011;64362;45.620;4.920;2022-12-10T08:02:43;7.40;;;4.60;;
59734;SDS011;64362;45.620;4.920;2022-12-10T08:05:08;8.73;;;4.47;;
59734;SDS011;64362;45.620;4.920;2022-12-10T08:07:41;7.22;;;4.60;;
59734;SDS011;64362;45.620;4.920;2022-12-10T08:10:06;7.22;;;4.72;;
59734;SDS011;64362;45.620;4.920;2022-12-10T08:12:39;7.20;;;4.40;;
59734;SDS011;64362;45.620;4.920;2022-12-10T08:15:11;7.78;;;4.38;;
59734;SDS011;64362;45.620;4.920;2022-12-10T08:17:37;7.43;;;4.25;;
59734;SDS011;64362;45.620;4.920;2022-12-10T08:20:09;7.15;;;4.20;;
59734;SDS011;64362;45.620;4.920;2022-12-10T08:22:34;6.43;;;3.58;;
59734;SDS011;64362;45.620;4.920;2022-12-10T08:25:07;5.85;;;4.28;;
59734;SDS011;64362;45.620;4.920;2022-12-10T08:27:39;7.40;;;4.68;;
59734;SDS011;64362;45.620;4.920;2022-12-10T08:30:04;7.45;;;4.13;;
59734;SDS011;64362;45.620;4.920;2022-12-10T08:32:37;11.90;;;4.75;;
59734;SDS011;64362;45.620;4.920;2022-12-10T08:35:02;11.90;;;4.55;;
59734;SDS011;64362;45.620;4.920;2022-12-10T08:37:35;10.23;;;4.53;;
59734;SDS011;64362;45.620;4.920;2022-12-10T08:40:13;8.95;;;4.78;;
59734;SDS011;64362;45.620;4.920;2022-12-10T08:42:53;12.95;;;4.90;;
59734;SDS011;64362;45.620;4.920;2022-12-10T08:45:25;13.75;;;4.93;;
59734;SDS011;64362;45.620;4.920;2022-12-10T08:47:50;13.15;;;5.43;;
59734;SDS011;64362;45.620;4.920;2022-12-10T08:50:23;16.20;;;5.97;;
59734;SDS011;64362;45.620;4.920;2022-12-10T08:52:55;12.43;;;4.43;;
59734;SDS011;64362;45.620;4.920;2022-12-10T08:55:20;14.43;;;5.63;;
59734;SDS011;64362;45.620;4.920;2022-12-10T08:57:53;12.32;;;5.22;;
59734;SDS011;64362;45.620;4.920;2022-12-10T09:00:18;9.82;;;4.45;;
59734;SDS011;64362;45.620;4.920;2022-12-10T09:02:51;12.43;;;5.22;;
59734;SDS011;64362;45.620;4.920;2022-12-10T09:05:23;13.50;;;5.18;;
59734;SDS011;64362;45.620;4.920;2022-12-10T09:07:48;11.38;;;4.93;;
59734;SDS011;64362;45.620;4.920;2022-12-10T09:10:21;11.05;;;4.82;;
59734;SDS011;64362;45.620;4.920;2022-12-10T09:12:47;11.40;;;5.57;;
59734;SDS011;64362;45.620;4.920;2022-12-10T09:15:19;11.30;;;5.53;;
59734;SDS011;64362;45.620;4.920;2022-12-10T09:17:44;10.15;;;4.85;;
59734;SDS011;64362;45.620;4.920;2022-12-10T09:20:16;9.13;;;5.45;;
59734;SDS011;64362;45.620;4.920;2022-12-10T09:22:48;15.25;;;5.15;;
59734;SDS011;64362;45.620;4.920;2022-12-10T09:25:14;10.55;;;5.32;;
59734;SDS011;64362;45.620;4.920;2022-12-10T09:27:48;11.93;;;5.30;;
59734;SDS011;64362;45.620;4.920;2022-12-10T09:30:13;10.75;;;5.07;;
59734;SDS011;64362;45.620;4.920;2022-12-10T09:32:46;13.00;;;5.57;;
59734;SDS011;64362;45.620;4.920;2022-12-10T09:35:18;12.75;;;4.97;;
59734;SDS011;64362;45.620;4.920;2022-12-10T09:37:50;12.38;;;5.38;;
59734;SDS011;64362;45.620;4.920;2022-12-10T09:40:25;12.57;;;5.38;;
59734;SDS011;64362;45.620;4.920;2022-12-10T09:43:16;14.93;;;5.50;;
59734;SDS011;64362;45.620;4.920;2022-12-10T09:49:16;10.85;;;4.90;;
59734;SDS011;64362;45.620;4.920;2022-12-10T09:51:53;14.00;;;5.55;;
59734;SDS011;64362;45.620;4.920;2022-12-10T09:54:29;12.05;;;5.38;;
59734;SDS011;64362;45.620;4.920;2022-12-10T09:56:57;12.43;;;5.60;;
59734;SDS011;64362;45.620;4.920;2022-12-10T09:59:30;14.45;;;6.53;;
59734;SDS011;64362;45.620;4.920;2022-12-10T10:04:59;16.40;;;6.30;;
59734;SDS011;64362;45.620;4.920;2022-12-10T10:07:47;12.43;;;6.43;;
59734;SDS011;64362;45.620;4.920;2022-12-10T10:13:11;11.43;;;6.00;;
59734;SDS011;64362;45.620;4.920;2022-12-10T10:15:44;10.00;;;5.38;;
59734;SDS011;64362;45.620;4.920;2022-12-10T10:21:06;10.35;;;5.18;;
59734;SDS011;64362;45.620;4.920;2022-12-10T10:24:03;10.60;;;5.53;;
59734;SDS011;64362;45.620;4.920;2022-12-10T10:26:29;13.23;;;5.63;;
59734;SDS011;64362;45.620;4.920;2022-12-10T10:29:05;10.43;;;5.35;;
59734;SDS011;64362;45.620;4.920;2022-12-10T10:31:40;8.70;;;4.82;;
59734;SDS011;64362;45.620;4.920;2022-12-10T10:34:17;9.23;;;5.35;;
59734;SDS011;64362;45.620;4.920;2022-12-10T10:36:56;9.25;;;4.93;;
59734;SDS011;64362;45.620;4.920;2022-12-10T10:39:36;9.02;;;4.63;;
59734;SDS011;64362;45.620;4.920;2022-12-10T10:42:09;9.38;;;4.70;;
59734;SDS011;64362;45.620;4.920;2022-12-10T10:44:48;11.60;;;5.85;;
59734;SDS011;64362;45.620;4.920;2022-12-10T10:48:02;9.82;;;5.15;;
59734;SDS011;64362;45.620;4.920;2022-12-10T10:50:23;9.45;;;4.72;;
59734;SDS011;64362;45.620;4.920;2022-12-10T10:52:56;11.43;;;5.00;;
59734;SDS011;64362;45.620;4.920;2022-12-10T10:55:32;10.38;;;5.47;;
59734;SDS011;64362;45.620;4.920;2022-12-10T10:58:15;11.82;;;5.43;;
59734;SDS011;64362;45.620;4.920;2022-12-10T11:01:03;8.90;;;5.10;;
59734;SDS011;64362;45.620;4.920;2022-12-10T11:03:37;9.85;;;5.60;;
59734;SDS011;64362;45.620;4.920;2022-12-10T11:06:18;11.02;;;5.22;;
59734;SDS011;64362;45.620;4.920;2022-12-10T11:08:45;10.55;;;5.60;;
59734;SDS011;64362;45.620;4.920;2022-12-10T11:11:19;7.70;;;5.10;;
59734;SDS011;64362;45.620;4.920;2022-12-10T11:13:46;12.40;;;6.10;;
59734;SDS011;64362;45.620;4.920;2022-12-10T11:16:20;12.73;;;5.90;;
59734;SDS011;64362;45.620;4.920;2022-12-10T11:21:33;9.23;;;5.45;;
59734;SDS011;64362;45.620;4.920;2022-12-10T11:24:00;12.73;;;5.82;;
59734;SDS011;64362;45.620;4.920;2022-12-10T11:32:24;11.95;;;5.95;;
59734;SDS011;64362;45.620;4.920;2022-12-10T11:37:47;18.55;;;7.57;;
59734;SDS011;64362;45.620;4.920;2022-12-10T11:40:28;37.30;;;16.33;;
59734;SDS011;64362;45.620;4.920;2022-12-10T11:43:23;31.15;;;14.35;;
59734;SDS011;64362;45.620;4.920;2022-12-10T11:49:06;35.58;;;15.40;;
59734;SDS011;64362;45.620;4.920;2022-12-10T12:00:54;26.42;;;12.98;;
59734;SDS011;64362;45.620;4.920;2022-12-10T12:06:56;21.60;;;11.02;;
59734;SDS011;64362;45.620;4.920;2022-12-10T12:09:54;25.05;;;10.60;;
59734;SDS011;64362;45.620;4.920;2022-12-10T12:15:29;23.92;;;9.93;;
59734;SDS011;64362;45.620;4.920;2022-12-10T12:18:29;22.05;;;9.70;;
59734;SDS011;64362;45.620;4.920;2022-12-10T12:21:15;18.83;;;8.77;;
59734;SDS011;64362;45.620;4.920;2022-12-10T12:23:50;21.88;;;9.32;;
59734;SDS011;64362;45.620;4.920;2022-12-10T12:31:37;17.80;;;8.35;;
59734;SDS011;64362;45.620;4.920;2022-12-10T12:36:48;16.33;;;7.60;;
59734;SDS011;64362;45.620;4.920;2022-12-10T12:42:03;24.63;;;7.28;;
59734;SDS011;64362;45.620;4.920;2022-12-10T12:47:41;16.95;;;6.78;;
59734;SDS011;64362;45.620;4.920;2022-12-10T12:52:57;16.17;;;6.35;;
59734;SDS011;64362;45.620;4.920;2022-12-10T12:58:40;15.13;;;6.32;;
59734;SDS011;64362;45.620;4.920;2022-12-10T13:04:22;13.63;;;6.38;;
59734;SDS011;64362;45.620;4.920;2022-12-10T13:09:49;14.75;;;6.10;;
59734;SDS011;64362;45.620;4.920;2022-12-10T13:15:55;12.10;;;5.85;;
59734;SDS011;64362;45.620;4.920;2022-12-10T13:18:22;11.30;;;5.38;;
59734;SDS011;64362;45.620;4.920;2022-12-10T13:21:26;10.07;;;5.53;;
59734;SDS011;64362;45.620;4.920;2022-12-10T13:24:10;9.40;;;4.88;;
59734;SDS011;64362;45.620;4.920;2022-12-10T13:46:31;11.25;;;5.32;;
59734;SDS011;64362;45.620;4.920;2022-12-10T13:49:05;10.07;;;5.30;;
59734;SDS011;64362;45.620;4.920;2022-12-10T13:51:55;8.43;;;5.18;;
59734;SDS011;64362;45.620;4.920;2022-12-10T13:58:23;7.18;;;4.43;;
59734;SDS011;64362;45.620;4.920;2022-12-10T14:03:35;7.38;;;3.90;;
59734;SDS011;64362;45.620;4.920;2022-12-10T14:08:54;9.45;;;4.43;;
59734;SDS011;64362;45.620;4.920;2022-12-10T14:11:32;11.60;;;4.85;;
59734;SDS011;64362;45.620;4.920;2022-12-10T14:14:11;9.00;;;4.63;;
59734;SDS011;64362;45.620;4.920;2022-12-10T14:16:46;11.27;;;4.47;;
59734;SDS011;64362;45.620;4.920;2022-12-10T14:19:18;8.43;;;5.10;;
59734;SDS011;64362;45.620;4.920;2022-12-10T14:21:50;9.88;;;4.80;;
59734;SDS011;64362;45.620;4.920;2022-12-10T14:24:29;11.25;;;3.95;;
59734;SDS011;64362;45.620;4.920;2022-12-10T14:27:09;9.30;;;4.32;;
59734;SDS011;64362;45.620;4.920;2022-12-10T14:29:49;8.52;;;4.40;;
59734;SDS011;64362;45.620;4.920;2022-12-10T14:32:28;9.25;;;4.25;;
59734;SDS011;64362;45.620;4.920;2022-12-10T14:35:03;6.20;;;4.15;;
59734;SDS011;64362;45.620;4.920;2022-12-10T14:37:31;6.70;;;3.80;;
59734;SDS011;64362;45.620;4.920;2022-12-10T14:40:19;7.80;;;4.45;;
59734;SDS011;64362;45.620;4.920;2022-12-10T14:43:04;6.95;;;3.78;;
59734;SDS011;64362;45.620;4.920;2022-12-10T14:45:47;7.53;;;4.35;;
59734;SDS011;64362;45.620;4.920;2022-12-10T14:48:28;9.15;;;4.25;;
59734;SDS011;64362;45.620;4.920;2022-12-10T14:50:53;7.88;;;3.80;;
59734;SDS011;64362;45.620;4.920;2022-12-10T14:53:28;13.52;;;6.80;;
59734;SDS011;64362;45.620;4.920;2022-12-10T14:55:55;13.07;;;5.97;;
59734;SDS011;64362;45.620;4.920;2022-12-10T14:58:31;8.82;;;5.07;;
59734;SDS011;64362;45.620;4.920;2022-12-10T15:01:11;11.00;;;5.22;;
59734;SDS011;64362;45.620;4.920;2022-12-10T15:03:51;11.13;;;5.10;;
59734;SDS011;64362;45.620;4.920;2022-12-10T15:06:23;8.55;;;4.82;;
59734;SDS011;64362;45.620;4.920;2022-12-10T15:08:48;9.55;;;4.93;;
59734;SDS011;64362;45.620;4.920;2022-12-10T15:11:21;6.95;;;4.60;;
59734;SDS011;64362;45.620;4.920;2022-12-10T15:13:55;8.25;;;4.43;;
59734;SDS011;64362;45.620;4.920;2022-12-10T15:16:37;6.07;;;4.50;;
59734;SDS011;64362;45.620;4.920;2022-12-10T15:22:17;5.45;;;4.20;;
59734;SDS011;64362;45.620;4.920;2022-12-10T15:24:50;7.28;;;4.35;;
59734;SDS011;64362;45.620;4.920;2022-12-10T15:27:16;8.00;;;3.90;;
59734;SDS011;64362;45.620;4.920;2022-12-10T15:29:49;6.80;;;4.22;;
59734;SDS011;64362;45.620;4.920;2022-12-10T15:32:17;7.03;;;3.97;;
59734;SDS011;64362;45.620;4.920;2022-12-10T15:34:53;7.40;;;3.85;;
59734;SDS011;64362;45.620;4.920;2022-12-10T15:37:38;5.82;;;3.80;;
59734;SDS011;64362;45.620;4.920;2022-12-10T15:40:06;5.07;;;3.55;;
59734;SDS011;64362;45.620;4.920;2022-12-10T15:42:40;5.87;;;3.83;;
59734;SDS011;64362;45.620;4.920;2022-12-10T15:47:57;4.63;;;3.65;;
59734;SDS011;64362;45.620;4.920;2022-12-10T15:50:23;5.10;;;4.05;;
59734;SDS011;64362;45.620;4.920;2022-12-10T15:52:56;5.68;;;3.90;;
59734;SDS011;64362;45.620;4.920;2022-12-10T15:55:21;5.43;;;3.60;;
59734;SDS011;64362;45.620;4.920;2022-12-10T15:57:53;5.53;;;3.85;;
59734;SDS011;64362;45.620;4.920;2022-12-10T16:00:23;5.82;;;4.10;;
59734;SDS011;64362;45.620;4.920;2022-12-10T16:03:04;6.45;;;3.60;;
59734;SDS011;64362;45.620;4.920;2022-12-10T16:05:38;6.20;;;3.70;;
59734;SDS011;64362;45.620;4.920;2022-12-10T16:08:17;5.75;;;4.30;;
59734;SDS011;64362;45.620;4.920;2022-12-10T16:10:52;5.30;;;4.00;;
59734;SDS011;64362;45.620;4.920;2022-12-10T16:13:28;4.90;;;3.95;;
59734;SDS011;64362;45.620;4.920;2022-12-10T16:16:06;5.40;;;3.80;;
59734;SDS011;64362;45.620;4.920;2022-12-10T16:18:40;4.55;;;3.58;;
59734;SDS011;64362;45.620;4.920;2022-12-10T16:21:12;6.97;;;4.28;;
59734;SDS011;64362;45.620;4.920;2022-12-10T16:23:38;5.03;;;3.70;;
59734;SDS011;64362;45.620;4.920;2022-12-10T16:28:44;10.10;;;4.13;;
59734;SDS011;64362;45.620;4.920;2022-12-10T16:31:18;8.50;;;4.13;;
59734;SDS011;64362;45.620;4.920;2022-12-10T16:33:45;11.38;;;4.43;;
59734;SDS011;64362;45.620;4.920;2022-12-10T16:36:18;11.98;;;4.10;;
59734;SDS011;64362;45.620;4.920;2022-12-10T16:38:44;11.60;;;4.50;;
59734;SDS011;64362;45.620;4.920;2022-12-10T16:41:18;10.18;;;4.20;;
59734;SDS011;64362;45.620;4.920;2022-12-10T16:43:51;12.98;;;4.35;;
59734;SDS011;64362;45.620;4.920;2022-12-10T16:46:16;11.18;;;4.88;;
59734;SDS011;64362;45.620;4.920;2022-12-10T16:48:48;11.40;;;4.03;;
59734;SDS011;64362;45.620;4.920;2022-12-10T16:51:15;11.30;;;4.00;;
59734;SDS011;64362;45.620;4.920;2022-12-10T16:53:51;10.05;;;4.18;;
59734;SDS011;64362;45.620;4.920;2022-12-10T16:56:23;12.05;;;4.00;;
59734;SDS011;64362;45.620;4.920;2022-12-10T16:58:49;10.00;;;4.10;;
59734;SDS011;64362;45.620;4.920;2022-12-10T17:01:22;7.22;;;3.90;;
59734;SDS011;64362;45.620;4.920;2022-12-10T17:03:55;7.88;;;4.03;;
59734;SDS011;64362;45.620;4.920;2022-12-10T17:06:28;10.70;;;4.05;;
59734;SDS011;64362;45.620;4.920;2022-12-10T17:08:54;11.77;;;3.90;;
59734;SDS011;64362;45.620;4.920;2022-12-10T17:11:27;11.48;;;3.83;;
59734;SDS011;64362;45.620;4.920;2022-12-10T17:14:27;8.30;;;3.95;;
59734;SDS011;64362;45.620;4.920;2022-12-10T17:17:00;6.22;;;4.05;;
59734;SDS011;64362;45.620;4.920;2022-12-10T17:19:29;10.98;;;4.10;;
59734;SDS011;64362;45.620;4.920;2022-12-10T17:22:01;7.80;;;4.07;;
59734;SDS011;64362;45.620;4.920;2022-12-10T17:24:28;12.73;;;4.40;;
59734;SDS011;64362;45.620;4.920;2022-12-10T17:27:33;12.40;;;4.95;;